Moby Baby — ICEM — position and weather

sailwx.info

Track history (hours):
 
Tides and Currents Weather Stations Pressure Air Temp Water Temp Dewpoint Dewpoint Depression Visibility Wind Speed Wind Dir Waves Ship Positions

Moby Baby

Last reported at 2015-Jul-29 07:04 UTC. Time now 2015-Jul-29 11:32 UTC.
Position N 42°49' E 010°20'.

Length 99 m; draft 4.5 m.

Type: Ship. MMSI: 247049900.

Date/timePositionNaut miles runAvg speedWind from/ knotsBaromVisibWave heightAir tempDewpointWater temp
2015-Jul-29 07:04N 42°49' E 010°20'814.6
2015-Jul-29 06:33N 42°53' E 010°28'2 0.1
2015-Jul-28 14:19N 42°54' E 010°32'1013.4
2015-Jul-28 13:33N 42°49' E 010°19'6 6.0
2015-Jul-28 12:33N 42°53' E 010°25'6 1.0
2015-Jul-28 07:03N 42°49' E 010°20'815.0
2015-Jul-28 06:33N 42°53' E 010°28'5 4.3
2015-Jul-28 05:28N 42°56' E 010°34'13 1.4
2015-Jul-27 20:14N 42°49' E 010°19'0 0.0
2015-Jul-27 19:32N 42°49' E 010°19'12 8.5
2015-Jul-27 18:06N 42°56' E 010°33'611.4
2015-Jul-27 17:33N 42°53' E 010°26'1 0.5
2015-Jul-27 15:33N 42°52' E 010°24'4 3.0
2015-Jul-27 14:10N 42°54' E 010°30'9 8.0
2015-Jul-27 13:05N 42°49' E 010°20'1015.2
2015-Jul-27 12:25N 42°55' E 010°31'  
2015-Jul-24 19:24N 42°49' E 010°20'11 9.8
2015-Jul-24 18:14N 42°56' E 010°33'6 8.3
2015-Jul-24 17:33N 42°53' E 010°26'7 6.5
2015-Jul-24 16:33N 42°49' E 010°19'6 5.9
2015-Jul-24 15:33N 42°53' E 010°25'4 3.1
2015-Jul-24 14:11N 42°54' E 010°31'1015.4
2015-Jul-24 13:33N 42°49' E 010°20'6 6.1
2015-Jul-24 12:33N 42°53' E 010°25'6 5.2
2015-Jul-24 11:22N 42°56' E 010°33'0 0.1
2015-Jul-24 09:28N 42°56' E 010°33'12 4.9
2015-Jul-24 07:04N 42°49' E 010°20'814.9
2015-Jul-24 06:33N 42°53' E 010°28'3 1.4
2015-Jul-24 04:33N 42°54' E 010°32'11 4.9
2015-Jul-24 02:20N 42°49' E 010°19'0 0.0
2015-Jul-24 00:33N 42°49' E 010°19'0 0.0
2015-Jul-23 22:24N 42°49' E 010°19'0 0.0
2015-Jul-23 20:20N 42°49' E 010°19'0 0.0
2015-Jul-23 19:28N 42°49' E 010°19'1111.0
2015-Jul-23 18:28N 42°55' E 010°32'5 5.0
2015-Jul-23 17:33N 42°53' E 010°26'7 6.5
2015-Jul-23 16:32N 42°49' E 010°19'7 6.8
2015-Jul-23 15:34N 42°53' E 010°26'6 5.3
2015-Jul-23 14:29N 42°56' E 010°33'1213.1
2015-Jul-23 13:34N 42°49' E 010°19'7 6.8
2015-Jul-23 12:33N 42°53' E 010°26'6 1.9
2015-Jul-23 09:25N 42°56' E 010°33'1314.5
2015-Jul-23 08:33N 42°49' E 010°20'1 0.4
2015-Jul-23 07:03N 42°49' E 010°20'915.4
2015-Jul-23 06:29N 42°54' E 010°30'2 2.0
2015-Jul-23 05:21N 42°54' E 010°33'11 3.5
2015-Jul-23 02:08N 42°49' E 010°19'0 0.0
2015-Jul-23 01:09N 42°49' E 010°19'0 0.0
2015-Jul-23 00:29N 42°49' E 010°19'0 0.0
2015-Jul-22 23:33N 42°49' E 010°19'0 0.0
2015-Jul-22 22:12N 42°49' E 010°19'0 0.0
2015-Jul-22 21:29N 42°49' E 010°19'0 0.0
2015-Jul-22 20:33N 42°49' E 010°19'0 0.0
2015-Jul-22 19:33N 42°49' E 010°19'1312.9
2015-Jul-22 18:34N 42°56' E 010°34'6 6.5
2015-Jul-22 17:33N 42°53' E 010°26'6 6.2
2015-Jul-22 16:32N 42°49' E 010°19'5 5.5
2015-Jul-22 15:33N 42°52' E 010°24'6 4.7
2015-Jul-22 14:16N 42°54' E 010°32'1115.5
2015-Jul-22 13:33N 42°49' E 010°20'6 6.1
2015-Jul-22 12:33N 42°53' E 010°25'6 5.5
2015-Jul-22 11:26N 42°56' E 010°33'0 0.0
2015-Jul-22 10:33N 42°56' E 010°33'0 0.0
2015-Jul-22 09:33N 42°56' E 010°33'12 5.1
2015-Jul-22 07:09N 42°49' E 010°19'913.9
2015-Jul-22 06:32N 42°54' E 010°29'4 3.6
2015-Jul-22 05:32N 42°56' E 010°33'1212.4
2015-Jul-22 04:33N 42°49' E 010°20'0 0.1
2015-Jul-22 03:21N 42°49' E 010°19'0 0.0
2015-Jul-22 02:32N 42°49' E 010°19'0 0.0
2015-Jul-22 00:24N 42°49' E 010°19'0 0.0
2015-Jul-21 23:10N 42°49' E 010°19'0 0.0
2015-Jul-21 22:29N 42°49' E 010°19'0 0.0
2015-Jul-21 21:33N 42°49' E 010°19'0 0.0
2015-Jul-21 20:28N 42°49' E 010°19'0 0.1
2015-Jul-21 19:25N 42°49' E 010°19'1314.9
2015-Jul-21 18:33N 42°56' E 010°34'7 6.6
2015-Jul-21 17:34N 42°53' E 010°26'6 6.3
2015-Jul-21 16:33N 42°49' E 010°19'6 6.0
2015-Jul-21 15:33N 42°53' E 010°25'6 5.8
2015-Jul-21 14:27N 42°56' E 010°33'6 3.3
2015-Jul-21 12:34N 42°53' E 010°26'6 3.0
2015-Jul-21 10:32N 42°56' E 010°33'0 0.0
2015-Jul-21 09:30N 42°56' E 010°33'1212.7
2015-Jul-21 08:33N 42°49' E 010°19'0 0.1
2015-Jul-21 07:23N 42°49' E 010°19'8 9.4
2015-Jul-21 06:33N 42°53' E 010°28'4 4.4
2015-Jul-21 05:33N 42°56' E 010°33'1212.2
2015-Jul-21 04:33N 42°49' E 010°20'0 0.0
2015-Jul-20 22:33N 42°49' E 010°19'0 0.0
2015-Jul-20 21:33N 42°49' E 010°19'0 0.0
2015-Jul-20 20:31N 42°49' E 010°19'0 0.0
2015-Jul-20 19:32N 42°49' E 010°19'1312.6
2015-Jul-20 18:32N 42°56' E 010°33'6 6.3
2015-Jul-20 17:33N 42°53' E 010°26'6 6.5
2015-Jul-20 16:33N 42°49' E 010°19'6 6.1
2015-Jul-20 15:31N 42°53' E 010°26'6 6.0
2015-Jul-20 14:31N 42°56' E 010°33'0 0.0
2015-Jul-20 11:29N 42°56' E 010°33'4 0.9
2015-Jul-20 06:33N 42°53' E 010°28'4 4.2
2015-Jul-20 05:32N 42°56' E 010°33'1212.3
2015-Jul-20 04:33N 42°49' E 010°20'0 0.2
2015-Jul-20 03:33N 42°49' E 010°19'0 0.0
2015-Jul-19 22:28N 42°49' E 010°19'0 0.0
2015-Jul-19 21:33N 42°49' E 010°19'0 0.0
2015-Jul-19 20:34N 42°49' E 010°19'0 0.0
2015-Jul-19 19:33N 42°49' E 010°19'1312.8
2015-Jul-19 18:34N 42°56' E 010°34'7 6.7
2015-Jul-19 17:33N 42°53' E 010°26'6 6.1
2015-Jul-19 16:33N 42°49' E 010°19'5 5.2
2015-Jul-19 15:33N 42°52' E 010°24'7 6.9
2015-Jul-19 14:32N 42°56' E 010°33'1212.4
2015-Jul-19 13:33N 42°49' E 010°19'6 6.1
2015-Jul-19 12:33N 42°53' E 010°25'6 6.3
2015-Jul-19 11:33N 42°56' E 010°33'0 0.0
2015-Jul-19 10:23N 42°56' E 010°33'0 0.1
2015-Jul-19 09:31N 42°56' E 010°33'1212.8
2015-Jul-19 08:33N 42°49' E 010°19'0 0.1
2015-Jul-19 07:33N 42°49' E 010°19'  
Track history (hours):
 
Tides and Currents Weather Stations Pressure Air Temp Water Temp Dewpoint Dewpoint Depression Visibility Wind Speed Wind Dir Waves Ship Positions

Moby Baby

Last reported at 2015-Jul-29 07:04 UTC. Time now 2015-Jul-29 11:32 UTC.
Position N 42°49' E 010°20'.

Length 99 m; draft 4.5 m.

Type: Ship. MMSI: 247049900.

Date/timePositionNaut miles runAvg speedWind from/ knotsBaromVisibWave heightAir tempDewpointWater temp
2015-Jul-29 07:04N 42°49' E 010°20'814.6
2015-Jul-29 06:33N 42°53' E 010°28'2 0.1
2015-Jul-28 14:19N 42°54' E 010°32'1013.4
2015-Jul-28 13:33N 42°49' E 010°19'6 6.0
2015-Jul-28 12:33N 42°53' E 010°25'6 1.0
2015-Jul-28 07:03N 42°49' E 010°20'815.0
2015-Jul-28 06:33N 42°53' E 010°28'5 4.3
2015-Jul-28 05:28N 42°56' E 010°34'13 1.4
2015-Jul-27 20:14N 42°49' E 010°19'0 0.0
2015-Jul-27 19:32N 42°49' E 010°19'12 8.5
2015-Jul-27 18:06N 42°56' E 010°33'611.4
2015-Jul-27 17:33N 42°53' E 010°26'1 0.5
2015-Jul-27 15:33N 42°52' E 010°24'4 3.0
2015-Jul-27 14:10N 42°54' E 010°30'9 8.0
2015-Jul-27 13:05N 42°49' E 010°20'1015.2
2015-Jul-27 12:25N 42°55' E 010°31'  
2015-Jul-24 19:24N 42°49' E 010°20'11 9.8
2015-Jul-24 18:14N 42°56' E 010°33'6 8.3
2015-Jul-24 17:33N 42°53' E 010°26'7 6.5
2015-Jul-24 16:33N 42°49' E 010°19'6 5.9
2015-Jul-24 15:33N 42°53' E 010°25'4 3.1
2015-Jul-24 14:11N 42°54' E 010°31'1015.4
2015-Jul-24 13:33N 42°49' E 010°20'6 6.1
2015-Jul-24 12:33N 42°53' E 010°25'6 5.2
2015-Jul-24 11:22N 42°56' E 010°33'0 0.1
2015-Jul-24 09:28N 42°56' E 010°33'12 4.9
2015-Jul-24 07:04N 42°49' E 010°20'814.9
2015-Jul-24 06:33N 42°53' E 010°28'3 1.4
2015-Jul-24 04:33N 42°54' E 010°32'11 4.9
2015-Jul-24 02:20N 42°49' E 010°19'0 0.0
2015-Jul-24 00:33N 42°49' E 010°19'0 0.0
2015-Jul-23 22:24N 42°49' E 010°19'0 0.0
2015-Jul-23 20:20N 42°49' E 010°19'0 0.0
2015-Jul-23 19:28N 42°49' E 010°19'1111.0
2015-Jul-23 18:28N 42°55' E 010°32'5 5.0
2015-Jul-23 17:33N 42°53' E 010°26'7 6.5
2015-Jul-23 16:32N 42°49' E 010°19'7 6.8
2015-Jul-23 15:34N 42°53' E 010°26'6 5.3
2015-Jul-23 14:29N 42°56' E 010°33'1213.1
2015-Jul-23 13:34N 42°49' E 010°19'7 6.8
2015-Jul-23 12:33N 42°53' E 010°26'6 1.9
2015-Jul-23 09:25N 42°56' E 010°33'1314.5
2015-Jul-23 08:33N 42°49' E 010°20'1 0.4
2015-Jul-23 07:03N 42°49' E 010°20'915.4
2015-Jul-23 06:29N 42°54' E 010°30'2 2.0
2015-Jul-23 05:21N 42°54' E 010°33'11 3.5
2015-Jul-23 02:08N 42°49' E 010°19'0 0.0
2015-Jul-23 01:09N 42°49' E 010°19'0 0.0
2015-Jul-23 00:29N 42°49' E 010°19'0 0.0
2015-Jul-22 23:33N 42°49' E 010°19'0 0.0
2015-Jul-22 22:12N 42°49' E 010°19'0 0.0
2015-Jul-22 21:29N 42°49' E 010°19'0 0.0
2015-Jul-22 20:33N 42°49' E 010°19'0 0.0
2015-Jul-22 19:33N 42°49' E 010°19'1312.9
2015-Jul-22 18:34N 42°56' E 010°34'6 6.5
2015-Jul-22 17:33N 42°53' E 010°26'6 6.2
2015-Jul-22 16:32N 42°49' E 010°19'5 5.5
2015-Jul-22 15:33N 42°52' E 010°24'6 4.7
2015-Jul-22 14:16N 42°54' E 010°32'1115.5
2015-Jul-22 13:33N 42°49' E 010°20'6 6.1
2015-Jul-22 12:33N 42°53' E 010°25'6 5.5
2015-Jul-22 11:26N 42°56' E 010°33'0 0.0
2015-Jul-22 10:33N 42°56' E 010°33'0 0.0
2015-Jul-22 09:33N 42°56' E 010°33'12 5.1
2015-Jul-22 07:09N 42°49' E 010°19'913.9
2015-Jul-22 06:32N 42°54' E 010°29'4 3.6
2015-Jul-22 05:32N 42°56' E 010°33'1212.4
2015-Jul-22 04:33N 42°49' E 010°20'0 0.1
2015-Jul-22 03:21N 42°49' E 010°19'0 0.0
2015-Jul-22 02:32N 42°49' E 010°19'0 0.0
2015-Jul-22 00:24N 42°49' E 010°19'0 0.0
2015-Jul-21 23:10N 42°49' E 010°19'0 0.0
2015-Jul-21 22:29N 42°49' E 010°19'0 0.0
2015-Jul-21 21:33N 42°49' E 010°19'0 0.0
2015-Jul-21 20:28N 42°49' E 010°19'0 0.1
2015-Jul-21 19:25N 42°49' E 010°19'1314.9
2015-Jul-21 18:33N 42°56' E 010°34'7 6.6
2015-Jul-21 17:34N 42°53' E 010°26'6 6.3
2015-Jul-21 16:33N 42°49' E 010°19'6 6.0
2015-Jul-21 15:33N 42°53' E 010°25'6 5.8
2015-Jul-21 14:27N 42°56' E 010°33'6 3.3
2015-Jul-21 12:34N 42°53' E 010°26'6 3.0
2015-Jul-21 10:32N 42°56' E 010°33'0 0.0
2015-Jul-21 09:30N 42°56' E 010°33'1212.7
2015-Jul-21 08:33N 42°49' E 010°19'0 0.1
2015-Jul-21 07:23N 42°49' E 010°19'8 9.4
2015-Jul-21 06:33N 42°53' E 010°28'4 4.4
2015-Jul-21 05:33N 42°56' E 010°33'1212.2
2015-Jul-21 04:33N 42°49' E 010°20'0 0.0
2015-Jul-20 22:33N 42°49' E 010°19'0 0.0
2015-Jul-20 21:33N 42°49' E 010°19'0 0.0
2015-Jul-20 20:31N 42°49' E 010°19'0 0.0
2015-Jul-20 19:32N 42°49' E 010°19'1312.6
2015-Jul-20 18:32N 42°56' E 010°33'6 6.3
2015-Jul-20 17:33N 42°53' E 010°26'6 6.5
2015-Jul-20 16:33N 42°49' E 010°19'6 6.1
2015-Jul-20 15:31N 42°53' E 010°26'6 6.0
2015-Jul-20 14:31N 42°56' E 010°33'0 0.0
2015-Jul-20 11:29N 42°56' E 010°33'4 0.9
2015-Jul-20 06:33N 42°53' E 010°28'4 4.2
2015-Jul-20 05:32N 42°56' E 010°33'1212.3
2015-Jul-20 04:33N 42°49' E 010°20'0 0.2
2015-Jul-20 03:33N 42°49' E 010°19'0 0.0
2015-Jul-19 22:28N 42°49' E 010°19'0 0.0
2015-Jul-19 21:33N 42°49' E 010°19'0 0.0
2015-Jul-19 20:34N 42°49' E 010°19'0 0.0
2015-Jul-19 19:33N 42°49' E 010°19'1312.8
2015-Jul-19 18:34N 42°56' E 010°34'7 6.7
2015-Jul-19 17:33N 42°53' E 010°26'6 6.1
2015-Jul-19 16:33N 42°49' E 010°19'5 5.2
2015-Jul-19 15:33N 42°52' E 010°24'7 6.9
2015-Jul-19 14:32N 42°56' E 010°33'1212.4
2015-Jul-19 13:33N 42°49' E 010°19'6 6.1
2015-Jul-19 12:33N 42°53' E 010°25'6 6.3
2015-Jul-19 11:33N 42°56' E 010°33'0 0.0
2015-Jul-19 10:23N 42°56' E 010°33'0 0.1
2015-Jul-19 09:31N 42°56' E 010°33'1212.8
2015-Jul-19 08:33N 42°49' E 010°19'0 0.1
2015-Jul-19 07:33N 42°49' E 010°19'  

Dump ship's entire track history